sensor_id;sensor_type;location;lat;lon;timestamp;P1;durP1;ratioP1;P2;durP2;ratioP2
52708;SDS011;38606;52.986;6.980;2022-08-14T00:00:37;7.75;;;6.50;;
52708;SDS011;38606;52.986;6.980;2022-08-14T00:03:03;10.57;;;6.65;;
52708;SDS011;38606;52.986;6.980;2022-08-14T00:05:29;7.47;;;6.78;;
52708;SDS011;38606;52.986;6.980;2022-08-14T00:07:55;8.98;;;6.40;;
52708;SDS011;38606;52.986;6.980;2022-08-14T00:10:21;11.20;;;6.70;;
52708;SDS011;38606;52.986;6.980;2022-08-14T00:12:51;8.07;;;6.20;;
52708;SDS011;38606;52.986;6.980;2022-08-14T00:15:23;10.82;;;6.18;;
52708;SDS011;38606;52.986;6.980;2022-08-14T00:17:49;8.50;;;7.47;;
52708;SDS011;38606;52.986;6.980;2022-08-14T00:20:16;9.77;;;6.57;;
52708;SDS011;38606;52.986;6.980;2022-08-14T00:22:43;7.45;;;6.57;;
52708;SDS011;38606;52.986;6.980;2022-08-14T00:25:08;7.72;;;6.40;;
52708;SDS011;38606;52.986;6.980;2022-08-14T00:27:35;8.73;;;6.93;;
52708;SDS011;38606;52.986;6.980;2022-08-14T00:30:01;8.48;;;6.88;;
52708;SDS011;38606;52.986;6.980;2022-08-14T00:32:30;7.43;;;6.55;;
52708;SDS011;38606;52.986;6.980;2022-08-14T00:34:56;9.23;;;6.55;;
52708;SDS011;38606;52.986;6.980;2022-08-14T00:37:25;8.55;;;7.03;;
52708;SDS011;38606;52.986;6.980;2022-08-14T00:39:52;8.35;;;7.53;;
52708;SDS011;38606;52.986;6.980;2022-08-14T00:42:18;11.55;;;7.32;;
52708;SDS011;38606;52.986;6.980;2022-08-14T00:44:44;9.48;;;7.05;;
52708;SDS011;38606;52.986;6.980;2022-08-14T00:47:12;7.72;;;6.65;;
52708;SDS011;38606;52.986;6.980;2022-08-14T00:49:39;10.30;;;7.25;;
52708;SDS011;38606;52.986;6.980;2022-08-14T00:52:04;8.63;;;7.35;;
52708;SDS011;38606;52.986;6.980;2022-08-14T00:54:31;8.18;;;7.30;;
52708;SDS011;38606;52.986;6.980;2022-08-14T00:56:57;9.05;;;6.90;;
52708;SDS011;38606;52.986;6.980;2022-08-14T00:59:26;8.35;;;7.15;;
52708;SDS011;38606;52.986;6.980;2022-08-14T01:01:56;10.55;;;7.18;;
52708;SDS011;38606;52.986;6.980;2022-08-14T01:04:24;8.30;;;7.45;;
52708;SDS011;38606;52.986;6.980;2022-08-14T01:06:51;8.00;;;7.20;;
52708;SDS011;38606;52.986;6.980;2022-08-14T01:09:17;9.68;;;7.53;;
52708;SDS011;38606;52.986;6.980;2022-08-14T01:11:50;8.98;;;7.90;;
52708;SDS011;38606;52.986;6.980;2022-08-14T01:14:17;9.10;;;7.63;;
52708;SDS011;38606;52.986;6.980;2022-08-14T01:16:44;9.57;;;7.75;;
52708;SDS011;38606;52.986;6.980;2022-08-14T01:19:10;9.23;;;7.15;;
52708;SDS011;38606;52.986;6.980;2022-08-14T01:21:55;9.70;;;8.07;;
52708;SDS011;38606;52.986;6.980;2022-08-14T01:24:22;9.82;;;8.05;;
52708;SDS011;38606;52.986;6.980;2022-08-14T01:26:48;9.90;;;7.82;;
52708;SDS011;38606;52.986;6.980;2022-08-14T01:29:13;10.00;;;8.10;;
52708;SDS011;38606;52.986;6.980;2022-08-14T01:31:39;9.07;;;7.82;;
52708;SDS011;38606;52.986;6.980;2022-08-14T01:34:16;11.05;;;7.97;;
52708;SDS011;38606;52.986;6.980;2022-08-14T01:36:43;12.27;;;9.13;;
52708;SDS011;38606;52.986;6.980;2022-08-14T01:39:10;11.38;;;9.02;;
52708;SDS011;38606;52.986;6.980;2022-08-14T01:41:42;9.65;;;8.57;;
52708;SDS011;38606;52.986;6.980;2022-08-14T01:44:20;12.23;;;9.50;;
52708;SDS011;38606;52.986;6.980;2022-08-14T01:46:47;10.15;;;8.82;;
52708;SDS011;38606;52.986;6.980;2022-08-14T01:49:18;13.48;;;10.30;;
52708;SDS011;38606;52.986;6.980;2022-08-14T01:51:45;10.63;;;8.95;;
52708;SDS011;38606;52.986;6.980;2022-08-14T01:54:13;9.48;;;8.43;;
52708;SDS011;38606;52.986;6.980;2022-08-14T01:56:45;12.50;;;8.63;;
52708;SDS011;38606;52.986;6.980;2022-08-14T02:01:44;13.10;;;8.90;;
52708;SDS011;38606;52.986;6.980;2022-08-14T02:04:11;12.02;;;8.90;;
52708;SDS011;38606;52.986;6.980;2022-08-14T02:06:37;14.93;;;9.40;;
52708;SDS011;38606;52.986;6.980;2022-08-14T02:09:04;13.98;;;9.77;;
52708;SDS011;38606;52.986;6.980;2022-08-14T02:11:30;11.65;;;9.05;;
52708;SDS011;38606;52.986;6.980;2022-08-14T02:13:59;13.27;;;10.52;;
52708;SDS011;38606;52.986;6.980;2022-08-14T02:16:28;12.38;;;9.82;;
52708;SDS011;38606;52.986;6.980;2022-08-14T02:18:58;12.52;;;10.27;;
52708;SDS011;38606;52.986;6.980;2022-08-14T02:21:27;12.45;;;9.82;;
52708;SDS011;38606;52.986;6.980;2022-08-14T02:23:55;10.50;;;9.30;;
52708;SDS011;38606;52.986;6.980;2022-08-14T02:26:23;10.43;;;9.32;;
52708;SDS011;38606;52.986;6.980;2022-08-14T02:28:52;10.23;;;9.05;;
52708;SDS011;38606;52.986;6.980;2022-08-14T02:31:19;14.45;;;10.48;;
52708;SDS011;38606;52.986;6.980;2022-08-14T02:33:46;11.77;;;9.70;;
52708;SDS011;38606;52.986;6.980;2022-08-14T02:36:12;12.18;;;10.27;;
52708;SDS011;38606;52.986;6.980;2022-08-14T02:38:39;11.80;;;9.30;;
52708;SDS011;38606;52.986;6.980;2022-08-14T02:41:07;12.18;;;10.18;;
52708;SDS011;38606;52.986;6.980;2022-08-14T02:43:34;12.75;;;10.07;;
52708;SDS011;38606;52.986;6.980;2022-08-14T02:46:01;10.90;;;9.80;;
52708;SDS011;38606;52.986;6.980;2022-08-14T02:48:27;12.10;;;10.07;;
52708;SDS011;38606;52.986;6.980;2022-08-14T02:50:56;10.57;;;9.45;;
52708;SDS011;38606;52.986;6.980;2022-08-14T02:53:23;12.65;;;10.38;;
52708;SDS011;38606;52.986;6.980;2022-08-14T02:55:49;11.15;;;10.05;;
52708;SDS011;38606;52.986;6.980;2022-08-14T02:58:15;12.38;;;10.00;;
52708;SDS011;38606;52.986;6.980;2022-08-14T03:00:41;16.30;;;11.60;;
52708;SDS011;38606;52.986;6.980;2022-08-14T03:03:07;12.15;;;10.43;;
52708;SDS011;38606;52.986;6.980;2022-08-14T03:05:33;13.40;;;11.27;;
52708;SDS011;38606;52.986;6.980;2022-08-14T03:08:06;16.42;;;11.18;;
52708;SDS011;38606;52.986;6.980;2022-08-14T03:10:34;12.70;;;10.15;;
52708;SDS011;38606;52.986;6.980;2022-08-14T03:13:01;12.70;;;11.40;;
52708;SDS011;38606;52.986;6.980;2022-08-14T03:15:29;13.70;;;10.45;;
52708;SDS011;38606;52.986;6.980;2022-08-14T03:17:56;13.23;;;10.40;;
52708;SDS011;38606;52.986;6.980;2022-08-14T03:20:22;12.25;;;10.32;;
52708;SDS011;38606;52.986;6.980;2022-08-14T03:22:47;11.73;;;9.85;;
52708;SDS011;38606;52.986;6.980;2022-08-14T03:25:13;12.82;;;10.95;;
52708;SDS011;38606;52.986;6.980;2022-08-14T03:27:39;14.38;;;10.73;;
52708;SDS011;38606;52.986;6.980;2022-08-14T03:30:04;13.80;;;10.73;;
52708;SDS011;38606;52.986;6.980;2022-08-14T03:32:31;13.82;;;10.60;;
52708;SDS011;38606;52.986;6.980;2022-08-14T03:35:00;14.63;;;10.52;;
52708;SDS011;38606;52.986;6.980;2022-08-14T03:37:26;16.27;;;11.27;;
52708;SDS011;38606;52.986;6.980;2022-08-14T03:39:52;13.60;;;11.55;;
52708;SDS011;38606;52.986;6.980;2022-08-14T03:42:18;12.50;;;10.70;;
52708;SDS011;38606;52.986;6.980;2022-08-14T03:44:43;13.85;;;11.10;;
52708;SDS011;38606;52.986;6.980;2022-08-14T03:47:09;12.85;;;11.23;;
52708;SDS011;38606;52.986;6.980;2022-08-14T03:49:36;14.18;;;11.73;;
52708;SDS011;38606;52.986;6.980;2022-08-14T03:52:04;13.82;;;10.95;;
52708;SDS011;38606;52.986;6.980;2022-08-14T03:54:29;15.23;;;11.20;;
52708;SDS011;38606;52.986;6.980;2022-08-14T03:56:59;12.70;;;11.40;;
52708;SDS011;38606;52.986;6.980;2022-08-14T03:59:26;13.13;;;10.90;;
52708;SDS011;38606;52.986;6.980;2022-08-14T04:01:52;12.73;;;11.02;;
52708;SDS011;38606;52.986;6.980;2022-08-14T04:04:17;12.88;;;11.02;;
52708;SDS011;38606;52.986;6.980;2022-08-14T04:06:43;12.55;;;11.35;;
52708;SDS011;38606;52.986;6.980;2022-08-14T04:09:09;14.95;;;11.25;;
52708;SDS011;38606;52.986;6.980;2022-08-14T04:11:35;12.90;;;11.60;;
52708;SDS011;38606;52.986;6.980;2022-08-14T04:14:03;14.20;;;12.18;;
52708;SDS011;38606;52.986;6.980;2022-08-14T04:16:29;12.15;;;11.05;;
52708;SDS011;38606;52.986;6.980;2022-08-14T04:18:56;12.50;;;11.20;;
52708;SDS011;38606;52.986;6.980;2022-08-14T04:21:24;17.25;;;12.43;;
52708;SDS011;38606;52.986;6.980;2022-08-14T04:23:53;14.40;;;11.90;;
52708;SDS011;38606;52.986;6.980;2022-08-14T04:26:22;16.80;;;12.48;;
52708;SDS011;38606;52.986;6.980;2022-08-14T04:28:51;15.77;;;12.05;;
52708;SDS011;38606;52.986;6.980;2022-08-14T04:31:18;12.68;;;11.40;;
52708;SDS011;38606;52.986;6.980;2022-08-14T04:33:45;12.93;;;11.43;;
52708;SDS011;38606;52.986;6.980;2022-08-14T04:36:12;12.82;;;11.10;;
52708;SDS011;38606;52.986;6.980;2022-08-14T04:38:38;17.85;;;12.98;;
52708;SDS011;38606;52.986;6.980;2022-08-14T04:41:22;15.50;;;12.57;;
52708;SDS011;38606;52.986;6.980;2022-08-14T04:44:18;13.13;;;11.75;;
52708;SDS011;38606;52.986;6.980;2022-08-14T04:46:44;16.00;;;13.52;;
52708;SDS011;38606;52.986;6.980;2022-08-14T04:49:30;13.85;;;11.75;;
52708;SDS011;38606;52.986;6.980;2022-08-14T04:51:57;14.73;;;11.98;;
52708;SDS011;38606;52.986;6.980;2022-08-14T04:54:24;14.20;;;12.65;;
52708;SDS011;38606;52.986;6.980;2022-08-14T04:56:51;13.65;;;11.95;;
52708;SDS011;38606;52.986;6.980;2022-08-14T04:59:20;13.70;;;12.25;;
52708;SDS011;38606;52.986;6.980;2022-08-14T05:01:47;14.98;;;11.75;;
52708;SDS011;38606;52.986;6.980;2022-08-14T05:04:13;14.90;;;11.52;;
52708;SDS011;38606;52.986;6.980;2022-08-14T05:06:39;13.52;;;12.23;;
52708;SDS011;38606;52.986;6.980;2022-08-14T05:09:05;15.18;;;13.07;;
52708;SDS011;38606;52.986;6.980;2022-08-14T05:11:31;16.02;;;13.90;;
52708;SDS011;38606;52.986;6.980;2022-08-14T05:13:59;17.70;;;13.93;;
52708;SDS011;38606;52.986;6.980;2022-08-14T05:16:26;17.58;;;12.57;;
52708;SDS011;38606;52.986;6.980;2022-08-14T05:18:55;18.70;;;12.55;;
52708;SDS011;38606;52.986;6.980;2022-08-14T05:21:20;13.82;;;12.15;;
52708;SDS011;38606;52.986;6.980;2022-08-14T05:23:46;14.07;;;12.57;;
52708;SDS011;38606;52.986;6.980;2022-08-14T05:26:12;14.77;;;13.27;;
52708;SDS011;38606;52.986;6.980;2022-08-14T05:28:40;13.57;;;12.18;;
52708;SDS011;38606;52.986;6.980;2022-08-14T05:31:11;14.50;;;12.60;;
52708;SDS011;38606;52.986;6.980;2022-08-14T05:33:38;15.60;;;13.20;;
52708;SDS011;38606;52.986;6.980;2022-08-14T05:36:08;13.90;;;12.35;;
52708;SDS011;38606;52.986;6.980;2022-08-14T05:38:39;14.82;;;12.95;;
52708;SDS011;38606;52.986;6.980;2022-08-14T05:43:37;18.33;;;12.68;;
52708;SDS011;38606;52.986;6.980;2022-08-14T05:46:04;14.18;;;12.75;;
52708;SDS011;38606;52.986;6.980;2022-08-14T05:48:30;17.50;;;12.27;;
52708;SDS011;38606;52.986;6.980;2022-08-14T05:50:56;17.20;;;11.82;;
52708;SDS011;38606;52.986;6.980;2022-08-14T05:53:22;13.63;;;12.20;;
52708;SDS011;38606;52.986;6.980;2022-08-14T05:55:50;13.20;;;11.80;;
52708;SDS011;38606;52.986;6.980;2022-08-14T05:58:17;14.88;;;12.32;;
52708;SDS011;38606;52.986;6.980;2022-08-14T06:00:44;16.02;;;12.27;;
52708;SDS011;38606;52.986;6.980;2022-08-14T06:03:11;15.98;;;12.93;;
52708;SDS011;38606;52.986;6.980;2022-08-14T06:05:40;17.30;;;12.80;;
52708;SDS011;38606;52.986;6.980;2022-08-14T06:08:17;15.75;;;12.30;;
52708;SDS011;38606;52.986;6.980;2022-08-14T06:10:48;14.27;;;12.88;;
52708;SDS011;38606;52.986;6.980;2022-08-14T06:13:15;15.40;;;13.05;;
52708;SDS011;38606;52.986;6.980;2022-08-14T06:15:41;14.15;;;11.90;;
52708;SDS011;38606;52.986;6.980;2022-08-14T06:18:07;16.75;;;12.27;;
52708;SDS011;38606;52.986;6.980;2022-08-14T06:20:33;13.40;;;11.50;;
52708;SDS011;38606;52.986;6.980;2022-08-14T06:22:59;14.13;;;12.00;;
52708;SDS011;38606;52.986;6.980;2022-08-14T06:25:24;12.98;;;11.00;;
52708;SDS011;38606;52.986;6.980;2022-08-14T06:27:50;15.35;;;12.20;;
52708;SDS011;38606;52.986;6.980;2022-08-14T06:30:18;14.27;;;11.40;;
52708;SDS011;38606;52.986;6.980;2022-08-14T06:32:46;14.77;;;11.85;;
52708;SDS011;38606;52.986;6.980;2022-08-14T06:35:12;12.52;;;11.20;;
52708;SDS011;38606;52.986;6.980;2022-08-14T06:37:39;14.02;;;11.00;;
52708;SDS011;38606;52.986;6.980;2022-08-14T06:40:15;14.00;;;11.20;;
52708;SDS011;38606;52.986;6.980;2022-08-14T06:42:45;13.88;;;11.38;;
52708;SDS011;38606;52.986;6.980;2022-08-14T06:45:11;12.57;;;11.35;;
52708;SDS011;38606;52.986;6.980;2022-08-14T06:47:37;13.07;;;10.85;;
52708;SDS011;38606;52.986;6.980;2022-08-14T06:50:05;11.32;;;10.15;;
52708;SDS011;38606;52.986;6.980;2022-08-14T06:52:32;11.48;;;10.35;;
52708;SDS011;38606;52.986;6.980;2022-08-14T06:54:58;12.23;;;10.73;;
52708;SDS011;38606;52.986;6.980;2022-08-14T06:57:24;11.60;;;10.30;;
52708;SDS011;38606;52.986;6.980;2022-08-14T06:59:50;11.55;;;10.25;;
52708;SDS011;38606;52.986;6.980;2022-08-14T07:02:16;14.50;;;10.38;;
52708;SDS011;38606;52.986;6.980;2022-08-14T07:05:00;13.27;;;10.30;;
52708;SDS011;38606;52.986;6.980;2022-08-14T07:07:45;11.57;;;9.70;;
52708;SDS011;38606;52.986;6.980;2022-08-14T07:10:11;11.90;;;9.88;;
52708;SDS011;38606;52.986;6.980;2022-08-14T07:12:37;10.30;;;9.18;;
52708;SDS011;38606;52.986;6.980;2022-08-14T07:15:04;12.38;;;8.77;;
52708;SDS011;38606;52.986;6.980;2022-08-14T07:17:30;14.57;;;8.90;;
52708;SDS011;38606;52.986;6.980;2022-08-14T07:19:56;9.65;;;8.50;;
52708;SDS011;38606;52.986;6.980;2022-08-14T07:22:22;8.30;;;7.50;;
52708;SDS011;38606;52.986;6.980;2022-08-14T07:24:47;7.90;;;7.15;;
52708;SDS011;38606;52.986;6.980;2022-08-14T07:27:13;9.60;;;7.80;;
52708;SDS011;38606;52.986;6.980;2022-08-14T07:29:39;9.68;;;7.80;;
52708;SDS011;38606;52.986;6.980;2022-08-14T07:32:04;8.80;;;7.45;;
52708;SDS011;38606;52.986;6.980;2022-08-14T07:34:30;7.85;;;7.03;;
52708;SDS011;38606;52.986;6.980;2022-08-14T07:36:56;11.05;;;6.45;;
52708;SDS011;38606;52.986;6.980;2022-08-14T07:39:22;12.07;;;6.68;;
52708;SDS011;38606;52.986;6.980;2022-08-14T07:41:47;7.88;;;6.80;;
52708;SDS011;38606;52.986;6.980;2022-08-14T07:44:13;7.72;;;6.70;;
52708;SDS011;38606;52.986;6.980;2022-08-14T07:46:39;10.48;;;7.70;;
52708;SDS011;38606;52.986;6.980;2022-08-14T07:49:05;7.53;;;6.20;;
52708;SDS011;38606;52.986;6.980;2022-08-14T07:51:33;6.15;;;5.55;;
52708;SDS011;38606;52.986;6.980;2022-08-14T07:53:58;8.32;;;5.85;;
52708;SDS011;38606;52.986;6.980;2022-08-14T07:56:24;7.68;;;5.70;;
52708;SDS011;38606;52.986;6.980;2022-08-14T07:58:50;7.00;;;5.57;;
52708;SDS011;38606;52.986;6.980;2022-08-14T08:01:16;7.72;;;5.68;;
52708;SDS011;38606;52.986;6.980;2022-08-14T08:03:44;7.22;;;5.38;;
52708;SDS011;38606;52.986;6.980;2022-08-14T08:06:12;7.03;;;6.32;;
52708;SDS011;38606;52.986;6.980;2022-08-14T08:08:41;6.55;;;5.63;;
52708;SDS011;38606;52.986;6.980;2022-08-14T08:11:08;6.70;;;5.50;;
52708;SDS011;38606;52.986;6.980;2022-08-14T08:13:36;7.57;;;5.55;;
52708;SDS011;38606;52.986;6.980;2022-08-14T08:16:06;6.45;;;5.47;;
52708;SDS011;38606;52.986;6.980;2022-08-14T08:18:33;6.50;;;5.38;;
52708;SDS011;38606;52.986;6.980;2022-08-14T08:20:59;7.28;;;5.50;;
52708;SDS011;38606;52.986;6.980;2022-08-14T08:23:25;5.68;;;5.18;;
52708;SDS011;38606;52.986;6.980;2022-08-14T08:25:54;6.00;;;5.25;;
52708;SDS011;38606;52.986;6.980;2022-08-14T08:28:23;5.25;;;4.78;;
52708;SDS011;38606;52.986;6.980;2022-08-14T08:30:51;8.23;;;5.43;;
52708;SDS011;38606;52.986;6.980;2022-08-14T08:33:19;9.07;;;5.40;;
52708;SDS011;38606;52.986;6.980;2022-08-14T08:35:47;6.28;;;4.70;;
52708;SDS011;38606;52.986;6.980;2022-08-14T08:38:14;6.10;;;4.78;;
52708;SDS011;38606;52.986;6.980;2022-08-14T08:40:45;5.18;;;4.68;;
52708;SDS011;38606;52.986;6.980;2022-08-14T08:43:26;7.05;;;5.38;;
52708;SDS011;38606;52.986;6.980;2022-08-14T08:48:50;6.45;;;4.70;;
52708;SDS011;38606;52.986;6.980;2022-08-14T08:53:58;5.68;;;5.07;;
52708;SDS011;38606;52.986;6.980;2022-08-14T08:59:02;5.47;;;4.95;;
52708;SDS011;38606;52.986;6.980;2022-08-14T09:01:39;4.90;;;4.38;;
52708;SDS011;38606;52.986;6.980;2022-08-14T09:04:05;5.80;;;4.93;;
52708;SDS011;38606;52.986;6.980;2022-08-14T09:06:31;5.35;;;4.38;;
52708;SDS011;38606;52.986;6.980;2022-08-14T09:09:16;5.82;;;4.93;;
52708;SDS011;38606;52.986;6.980;2022-08-14T09:11:43;4.68;;;4.20;;
52708;SDS011;38606;52.986;6.980;2022-08-14T09:14:09;5.07;;;4.55;;
52708;SDS011;38606;52.986;6.980;2022-08-14T09:16:35;5.13;;;4.32;;
52708;SDS011;38606;52.986;6.980;2022-08-14T09:19:01;5.10;;;4.65;;
52708;SDS011;38606;52.986;6.980;2022-08-14T09:21:27;5.63;;;4.25;;
52708;SDS011;38606;52.986;6.980;2022-08-14T09:23:53;5.05;;;4.55;;
52708;SDS011;38606;52.986;6.980;2022-08-14T09:26:19;5.95;;;4.50;;
52708;SDS011;38606;52.986;6.980;2022-08-14T09:28:45;5.07;;;4.60;;
52708;SDS011;38606;52.986;6.980;2022-08-14T09:31:11;6.03;;;4.80;;
52708;SDS011;38606;52.986;6.980;2022-08-14T09:45:18;5.13;;;4.18;;
52708;SDS011;38606;52.986;6.980;2022-08-14T09:47:56;4.88;;;4.47;;
52708;SDS011;38606;52.986;6.980;2022-08-14T09:55:25;5.13;;;4.72;;
52708;SDS011;38606;52.986;6.980;2022-08-14T09:57:52;5.35;;;4.68;;
52708;SDS011;38606;52.986;6.980;2022-08-14T10:00:41;5.47;;;4.97;;
52708;SDS011;38606;52.986;6.980;2022-08-14T10:03:10;5.82;;;5.22;;
52708;SDS011;38606;52.986;6.980;2022-08-14T10:05:36;5.82;;;5.15;;
52708;SDS011;38606;52.986;6.980;2022-08-14T10:08:03;5.18;;;4.68;;
52708;SDS011;38606;52.986;6.980;2022-08-14T10:10:40;7.10;;;5.18;;
52708;SDS011;38606;52.986;6.980;2022-08-14T10:13:18;7.50;;;5.00;;
52708;SDS011;38606;52.986;6.980;2022-08-14T10:15:46;5.80;;;5.00;;
52708;SDS011;38606;52.986;6.980;2022-08-14T10:18:14;5.60;;;5.00;;
52708;SDS011;38606;52.986;6.980;2022-08-14T10:20:42;4.90;;;4.50;;
52708;SDS011;38606;52.986;6.980;2022-08-14T10:23:17;6.03;;;5.20;;
52708;SDS011;38606;52.986;6.980;2022-08-14T10:25:51;7.25;;;4.57;;
52708;SDS011;38606;52.986;6.980;2022-08-14T10:28:21;4.93;;;4.50;;
52708;SDS011;38606;52.986;6.980;2022-08-14T10:30:48;5.90;;;4.72;;
52708;SDS011;38606;52.986;6.980;2022-08-14T10:33:25;4.97;;;4.57;;
52708;SDS011;38606;52.986;6.980;2022-08-14T10:35:53;4.97;;;4.57;;
52708;SDS011;38606;52.986;6.980;2022-08-14T10:38:29;5.70;;;4.90;;
52708;SDS011;38606;52.986;6.980;2022-08-14T10:41:14;4.50;;;4.10;;
52708;SDS011;38606;52.986;6.980;2022-08-14T10:43:42;5.28;;;4.63;;
52708;SDS011;38606;52.986;6.980;2022-08-14T10:46:14;5.15;;;4.75;;
52708;SDS011;38606;52.986;6.980;2022-08-14T10:48:54;6.07;;;4.85;;
52708;SDS011;38606;52.986;6.980;2022-08-14T10:51:25;7.40;;;4.60;;
52708;SDS011;38606;52.986;6.980;2022-08-14T10:53:55;5.28;;;4.70;;
52708;SDS011;38606;52.986;6.980;2022-08-14T10:56:29;5.32;;;4.93;;
52708;SDS011;38606;52.986;6.980;2022-08-14T10:59:04;7.13;;;5.10;;
52708;SDS011;38606;52.986;6.980;2022-08-14T11:01:35;6.40;;;5.10;;
52708;SDS011;38606;52.986;6.980;2022-08-14T11:04:03;5.85;;;5.35;;
52708;SDS011;38606;52.986;6.980;2022-08-14T11:06:29;6.32;;;5.18;;
52708;SDS011;38606;52.986;6.980;2022-08-14T11:08:55;4.68;;;4.28;;
52708;SDS011;38606;52.986;6.980;2022-08-14T11:11:21;5.45;;;4.38;;
52708;SDS011;38606;52.986;6.980;2022-08-14T11:13:53;5.43;;;4.93;;
52708;SDS011;38606;52.986;6.980;2022-08-14T11:16:21;5.40;;;4.85;;
52708;SDS011;38606;52.986;6.980;2022-08-14T11:18:48;5.55;;;4.47;;
52708;SDS011;38606;52.986;6.980;2022-08-14T11:21:16;5.63;;;5.10;;
52708;SDS011;38606;52.986;6.980;2022-08-14T11:23:47;6.32;;;4.85;;
52708;SDS011;38606;52.986;6.980;2022-08-14T11:26:14;6.68;;;4.60;;
52708;SDS011;38606;52.986;6.980;2022-08-14T11:28:47;5.87;;;4.70;;
52708;SDS011;38606;52.986;6.980;2022-08-14T11:31:14;6.47;;;4.63;;
52708;SDS011;38606;52.986;6.980;2022-08-14T11:33:48;5.93;;;4.68;;
52708;SDS011;38606;52.986;6.980;2022-08-14T11:36:20;5.00;;;4.50;;
52708;SDS011;38606;52.986;6.980;2022-08-14T11:38:48;5.15;;;4.47;;
52708;SDS011;38606;52.986;6.980;2022-08-14T11:41:14;6.75;;;4.72;;
52708;SDS011;38606;52.986;6.980;2022-08-14T11:43:41;6.75;;;4.93;;
52708;SDS011;38606;52.986;6.980;2022-08-14T11:46:08;5.20;;;4.70;;
52708;SDS011;38606;52.986;6.980;2022-08-14T11:48:43;7.57;;;5.30;;
52708;SDS011;38606;52.986;6.980;2022-08-14T11:51:17;5.53;;;4.75;;
52708;SDS011;38606;52.986;6.980;2022-08-14T11:53:53;6.97;;;5.00;;
52708;SDS011;38606;52.986;6.980;2022-08-14T11:58:53;5.95;;;5.20;;
52708;SDS011;38606;52.986;6.980;2022-08-14T12:01:23;6.18;;;4.78;;
52708;SDS011;38606;52.986;6.980;2022-08-14T12:03:52;6.03;;;4.75;;
52708;SDS011;38606;52.986;6.980;2022-08-14T12:06:21;5.93;;;5.25;;
52708;SDS011;38606;52.986;6.980;2022-08-14T12:08:46;5.32;;;4.80;;
52708;SDS011;38606;52.986;6.980;2022-08-14T12:11:18;5.45;;;4.88;;
52708;SDS011;38606;52.986;6.980;2022-08-14T12:13:44;9.05;;;6.20;;
52708;SDS011;38606;52.986;6.980;2022-08-14T12:16:14;7.25;;;5.30;;
52708;SDS011;38606;52.986;6.980;2022-08-14T12:18:44;6.15;;;5.25;;
52708;SDS011;38606;52.986;6.980;2022-08-14T12:23:44;6.18;;;5.35;;
52708;SDS011;38606;52.986;6.980;2022-08-14T12:26:13;6.57;;;5.28;;
52708;SDS011;38606;52.986;6.980;2022-08-14T12:28:42;5.18;;;4.65;;
52708;SDS011;38606;52.986;6.980;2022-08-14T12:31:12;7.68;;;5.05;;
52708;SDS011;38606;52.986;6.980;2022-08-14T12:33:41;6.30;;;5.15;;
52708;SDS011;38606;52.986;6.980;2022-08-14T12:36:08;7.22;;;5.20;;
52708;SDS011;38606;52.986;6.980;2022-08-14T12:38:45;6.53;;;5.82;;
52708;SDS011;38606;52.986;6.980;2022-08-14T12:41:13;9.13;;;5.10;;
52708;SDS011;38606;52.986;6.980;2022-08-14T12:48:58;5.63;;;4.88;;
52708;SDS011;38606;52.986;6.980;2022-08-14T12:51:26;6.28;;;5.50;;
52708;SDS011;38606;52.986;6.980;2022-08-14T12:53:54;5.68;;;5.07;;
52708;SDS011;38606;52.986;6.980;2022-08-14T12:56:21;7.07;;;5.13;;
52708;SDS011;38606;52.986;6.980;2022-08-14T12:58:52;8.13;;;5.47;;
52708;SDS011;38606;52.986;6.980;2022-08-14T13:01:21;5.80;;;5.20;;
52708;SDS011;38606;52.986;6.980;2022-08-14T13:03:48;6.10;;;5.50;;
52708;SDS011;38606;52.986;6.980;2022-08-14T13:06:15;6.32;;;5.10;;
52708;SDS011;38606;52.986;6.980;2022-08-14T13:08:41;8.57;;;5.43;;
52708;SDS011;38606;52.986;6.980;2022-08-14T13:11:11;7.70;;;5.07;;
52708;SDS011;38606;52.986;6.980;2022-08-14T13:13:41;6.53;;;5.25;;
52708;SDS011;38606;52.986;6.980;2022-08-14T13:16:11;5.30;;;4.80;;
52708;SDS011;38606;52.986;6.980;2022-08-14T13:18:41;7.22;;;4.88;;
52708;SDS011;38606;52.986;6.980;2022-08-14T13:21:11;6.40;;;5.55;;
52708;SDS011;38606;52.986;6.980;2022-08-14T13:23:39;5.10;;;4.60;;
52708;SDS011;38606;52.986;6.980;2022-08-14T13:26:08;6.10;;;5.50;;
52708;SDS011;38606;52.986;6.980;2022-08-14T13:28:35;7.25;;;5.53;;
52708;SDS011;38606;52.986;6.980;2022-08-14T13:31:03;6.03;;;5.40;;
52708;SDS011;38606;52.986;6.980;2022-08-14T13:33:31;5.70;;;5.07;;
52708;SDS011;38606;52.986;6.980;2022-08-14T13:36:00;6.68;;;5.30;;
52708;SDS011;38606;52.986;6.980;2022-08-14T13:38:26;8.60;;;5.25;;
52708;SDS011;38606;52.986;6.980;2022-08-14T13:40:55;6.25;;;5.50;;
52708;SDS011;38606;52.986;6.980;2022-08-14T13:43:22;7.88;;;5.85;;
52708;SDS011;38606;52.986;6.980;2022-08-14T13:45:49;5.95;;;5.32;;
52708;SDS011;38606;52.986;6.980;2022-08-14T13:48:16;8.23;;;5.43;;
52708;SDS011;38606;52.986;6.980;2022-08-14T13:50:42;6.50;;;5.35;;
52708;SDS011;38606;52.986;6.980;2022-08-14T13:53:10;6.75;;;5.43;;
52708;SDS011;38606;52.986;6.980;2022-08-14T13:55:38;8.30;;;5.30;;
52708;SDS011;38606;52.986;6.980;2022-08-14T13:58:06;6.85;;;5.35;;
52708;SDS011;38606;52.986;6.980;2022-08-14T14:00:35;9.13;;;5.50;;
52708;SDS011;38606;52.986;6.980;2022-08-14T14:03:03;5.70;;;5.00;;
52708;SDS011;38606;52.986;6.980;2022-08-14T14:05:30;5.65;;;5.05;;
52708;SDS011;38606;52.986;6.980;2022-08-14T14:08:01;6.32;;;5.63;;
52708;SDS011;38606;52.986;6.980;2022-08-14T14:10:30;6.03;;;5.35;;
52708;SDS011;38606;52.986;6.980;2022-08-14T14:13:00;6.18;;;5.13;;
52708;SDS011;38606;52.986;6.980;2022-08-14T14:15:26;5.30;;;4.80;;
52708;SDS011;38606;52.986;6.980;2022-08-14T14:17:52;7.25;;;5.18;;
52708;SDS011;38606;52.986;6.980;2022-08-14T14:20:19;6.15;;;5.55;;
52708;SDS011;38606;52.986;6.980;2022-08-14T14:22:47;5.82;;;5.30;;
52708;SDS011;38606;52.986;6.980;2022-08-14T14:25:16;6.93;;;5.75;;
52708;SDS011;38606;52.986;6.980;2022-08-14T14:27:44;6.18;;;5.25;;
52708;SDS011;38606;52.986;6.980;2022-08-14T14:30:13;6.90;;;5.40;;
52708;SDS011;38606;52.986;6.980;2022-08-14T14:32:41;8.20;;;5.45;;
52708;SDS011;38606;52.986;6.980;2022-08-14T14:35:15;9.57;;;5.78;;
52708;SDS011;38606;52.986;6.980;2022-08-14T14:37:46;6.43;;;5.47;;
52708;SDS011;38606;52.986;6.980;2022-08-14T14:40:13;6.43;;;5.28;;
52708;SDS011;38606;52.986;6.980;2022-08-14T14:42:44;5.47;;;5.00;;
52708;SDS011;38606;52.986;6.980;2022-08-14T14:45:16;6.95;;;5.30;;
52708;SDS011;38606;52.986;6.980;2022-08-14T14:47:48;5.85;;;5.25;;
52708;SDS011;38606;52.986;6.980;2022-08-14T14:50:19;5.72;;;4.90;;
52708;SDS011;38606;52.986;6.980;2022-08-14T14:52:46;6.72;;;5.35;;
52708;SDS011;38606;52.986;6.980;2022-08-14T14:55:13;6.82;;;5.43;;
52708;SDS011;38606;52.986;6.980;2022-08-14T14:57:40;5.97;;;5.38;;
52708;SDS011;38606;52.986;6.980;2022-08-14T15:00:17;6.15;;;5.63;;
52708;SDS011;38606;52.986;6.980;2022-08-14T15:02:47;6.30;;;5.22;;
52708;SDS011;38606;52.986;6.980;2022-08-14T15:05:16;6.50;;;5.05;;
52708;SDS011;38606;52.986;6.980;2022-08-14T15:07:43;9.25;;;5.68;;
52708;SDS011;38606;52.986;6.980;2022-08-14T15:10:12;7.30;;;5.60;;
52708;SDS011;38606;52.986;6.980;2022-08-14T15:12:39;5.93;;;5.22;;
52708;SDS011;38606;52.986;6.980;2022-08-14T15:15:05;6.85;;;5.22;;
52708;SDS011;38606;52.986;6.980;2022-08-14T15:17:31;6.18;;;5.07;;
52708;SDS011;38606;52.986;6.980;2022-08-14T15:20:04;6.68;;;5.45;;
52708;SDS011;38606;52.986;6.980;2022-08-14T15:22:38;5.85;;;5.35;;
52708;SDS011;38606;52.986;6.980;2022-08-14T15:25:05;8.10;;;5.13;;